createdAt,value
2022-08-07T00:00:40.081Z,14.40
2022-08-07T00:02:44.731Z,14.21
2022-08-07T00:04:47.510Z,14.01
2022-08-07T00:06:51.770Z,13.57
2022-08-07T00:08:54.916Z,13.43
2022-08-07T00:10:58.360Z,14.07
2022-08-07T00:13:17.515Z,13.37
2022-08-07T00:15:37.680Z,14.12
2022-08-07T00:17:48.866Z,13.41
2022-08-07T00:20:01.301Z,13.61
2022-08-07T00:22:05.877Z,14.04
2022-08-07T00:24:09.154Z,13.97
2022-08-07T00:26:18.898Z,13.28
2022-08-07T00:28:35.717Z,13.05
2022-08-07T00:30:48.776Z,13.41
2022-08-07T00:32:51.699Z,12.93
2022-08-07T00:34:54.244Z,13.67
2022-08-07T00:36:56.926Z,13.22
2022-08-07T00:38:59.644Z,13.39
2022-08-07T00:41:04.054Z,13.14
2022-08-07T00:44:01.889Z,13.43
2022-08-07T00:45:36.656Z,13.43
2022-08-07T00:48:08.884Z,13.13
2022-08-07T00:50:20.419Z,13.55
2022-08-07T00:52:25.106Z,13.43
2022-08-07T00:54:29.449Z,13.35
2022-08-07T00:56:33.982Z,13.56
2022-08-07T00:58:36.668Z,13.49
2022-08-07T01:00:53.751Z,13.56
2022-08-07T01:02:57.185Z,13.48
2022-08-07T01:05:00.921Z,13.37
2022-08-07T01:07:05.763Z,13.38
2022-08-07T01:09:10.370Z,12.96
2022-08-07T01:12:23.537Z,13.03
2022-08-07T01:13:57.236Z,13.30
2022-08-07T01:16:05.502Z,13.18
2022-08-07T01:18:09.650Z,13.29
2022-08-07T01:20:16.701Z,13.02
2022-08-07T01:22:29.001Z,13.29
2022-08-07T01:24:32.748Z,13.25
2022-08-07T01:26:36.826Z,13.33
2022-08-07T01:28:46.358Z,13.44
2022-08-07T01:30:57.359Z,12.51
2022-08-07T01:33:02.403Z,12.90
2022-08-07T01:35:07.616Z,13.39
2022-08-07T01:37:17.267Z,13.18
2022-08-07T01:39:22.716Z,12.40
2022-08-07T01:41:40.855Z,13.34
2022-08-07T01:44:05.432Z,13.28
2022-08-07T01:46:12.181Z,13.17
2022-08-07T01:48:29.856Z,12.72
2022-08-07T01:50:38.318Z,13.07
2022-08-07T01:52:49.755Z,13.06
2022-08-07T01:55:02.030Z,12.74
2022-08-07T01:57:34.043Z,13.11
2022-08-07T01:59:49.509Z,12.70
2022-08-07T02:02:06.548Z,12.81
2022-08-07T02:04:18.156Z,12.75
2022-08-07T02:06:32.621Z,12.58
2022-08-07T02:08:42.540Z,12.52
2022-08-07T02:10:54.996Z,12.27
2022-08-07T02:13:01.770Z,12.48
2022-08-07T02:15:57.677Z,12.46
2022-08-07T02:18:04.863Z,12.43
2022-08-07T02:20:17.116Z,12.47
2022-08-07T02:22:25.767Z,12.18
2022-08-07T02:24:30.035Z,11.91
2022-08-07T02:26:34.825Z,12.32
2022-08-07T02:28:43.651Z,12.05
2022-08-07T02:30:47.800Z,12.30
2022-08-07T02:33:07.300Z,12.40
2022-08-07T02:35:12.901Z,12.32
2022-08-07T02:37:26.939Z,12.45
2022-08-07T02:39:43.818Z,12.14
2022-08-07T02:41:57.494Z,12.20
2022-08-07T02:44:03.346Z,12.23
2022-08-07T02:46:11.076Z,12.37
2022-08-07T02:48:15.650Z,12.16
2022-08-07T02:50:21.530Z,12.12
2022-08-07T02:52:33.398Z,12.23
2022-08-07T02:54:41.783Z,12.15
2022-08-07T02:56:48.142Z,12.12
2022-08-07T02:58:54.184Z,11.75
2022-08-07T03:00:59.571Z,12.20
2022-08-07T03:03:06.030Z,12.04
2022-08-07T03:05:12.008Z,11.91
2022-08-07T03:07:43.192Z,11.98
2022-08-07T03:09:52.614Z,12.04
2022-08-07T03:11:57.868Z,12.18
2022-08-07T03:14:07.846Z,12.08
2022-08-07T03:16:10.934Z,12.22
2022-08-07T03:18:17.625Z,12.10
2022-08-07T03:20:30.100Z,11.81
2022-08-07T03:22:34.703Z,11.79
2022-08-07T03:24:37.317Z,12.02
2022-08-07T03:26:51.183Z,11.88
2022-08-07T03:29:04.177Z,11.90
2022-08-07T03:31:24.728Z,12.05
2022-08-07T03:33:46.837Z,11.96
2022-08-07T03:35:52.582Z,11.79
2022-08-07T03:38:04.780Z,11.96
2022-08-07T03:40:15.072Z,11.84
2022-08-07T03:42:20.217Z,11.88
2022-08-07T03:44:34.438Z,11.80
2022-08-07T03:47:10.803Z,11.68
2022-08-07T03:49:21.814Z,11.68
2022-08-07T03:51:30.856Z,11.65
2022-08-07T03:54:02.068Z,11.62
2022-08-07T03:56:04.376Z,11.42
2022-08-07T03:59:07.202Z,10.84
2022-08-07T04:00:36.565Z,11.58
2022-08-07T04:02:43.077Z,11.73
2022-08-07T04:04:57.981Z,11.69
2022-08-07T04:07:02.376Z,11.83
2022-08-07T04:09:23.035Z,11.90
2022-08-07T04:12:25.002Z,11.77
2022-08-07T04:14:10.658Z,10.97
2022-08-07T04:16:15.796Z,11.20
2022-08-07T04:18:59.524Z,12.13
2022-08-07T04:20:55.987Z,12.24
2022-08-07T04:23:01.192Z,12.17
2022-08-07T04:25:08.896Z,12.15
2022-08-07T04:27:25.287Z,11.45
2022-08-07T04:29:57.187Z,12.20
2022-08-07T04:32:02.953Z,12.30
2022-08-07T04:34:16.502Z,12.34
2022-08-07T04:36:22.867Z,12.36
2022-08-07T04:38:29.785Z,12.32
2022-08-07T04:40:34.914Z,12.46
2022-08-07T04:42:38.237Z,12.64
2022-08-07T04:44:54.528Z,12.54
2022-08-07T04:47:23.685Z,12.53
2022-08-07T04:50:03.543Z,12.62
2022-08-07T04:52:46.952Z,12.47
2022-08-07T04:55:14.878Z,12.80
2022-08-07T04:58:12.099Z,12.54
2022-08-07T05:00:53.586Z,13.02
2022-08-07T05:03:38.923Z,13.09
2022-08-07T05:06:16.299Z,13.02
2022-08-07T05:08:59.458Z,13.09
2022-08-07T05:11:19.468Z,13.43
2022-08-07T05:14:52.588Z,13.52
2022-08-07T05:16:07.849Z,13.86
2022-08-07T05:18:23.260Z,14.00
2022-08-07T05:20:55.269Z,14.07
2022-08-07T05:23:05.286Z,14.24
2022-08-07T05:25:25.326Z,13.52
2022-08-07T05:28:02.872Z,13.96
2022-08-07T05:30:04.396Z,13.75
2022-08-07T05:32:09.964Z,14.59
2022-08-07T05:34:17.253Z,14.80
2022-08-07T05:36:30.312Z,14.76
2022-08-07T05:39:00.672Z,14.42
2022-08-07T05:40:58.460Z,15.20
2022-08-07T05:43:01.818Z,15.22
2022-08-07T05:45:26.259Z,15.15
2022-08-07T05:47:38.200Z,15.42
2022-08-07T05:49:58.306Z,15.94
2022-08-07T05:52:32.187Z,15.98
2022-08-07T05:54:44.433Z,16.11
2022-08-07T05:56:58.890Z,16.21
2022-08-07T05:59:03.900Z,16.24
2022-08-07T06:01:13.262Z,16.66
2022-08-07T06:03:21.365Z,16.69
2022-08-07T06:05:28.780Z,16.95
2022-08-07T06:08:29.165Z,17.17
2022-08-07T06:10:11.216Z,17.25
2022-08-07T06:12:21.121Z,17.41
2022-08-07T06:14:35.228Z,17.41
2022-08-07T06:16:50.430Z,17.88
2022-08-07T06:19:02.604Z,18.04
2022-08-07T06:22:15.936Z,18.12
2022-08-07T06:24:37.285Z,18.19
2022-08-07T06:26:01.601Z,18.31
2022-08-07T06:28:14.067Z,18.42
2022-08-07T06:30:32.038Z,18.63
2022-08-07T06:32:44.438Z,18.93
2022-08-07T06:34:48.760Z,18.84
2022-08-07T06:36:52.467Z,19.14
2022-08-07T06:40:17.951Z,19.16
2022-08-07T06:42:00.787Z,19.11
2022-08-07T06:44:16.937Z,18.85
2022-08-07T06:46:31.293Z,18.59
2022-08-07T06:48:38.617Z,19.69
2022-08-07T06:50:47.881Z,19.76
2022-08-07T06:52:55.687Z,20.14
2022-08-07T06:55:32.700Z,20.13
2022-08-07T06:57:47.133Z,20.26
2022-08-07T07:00:12.087Z,20.65
2022-08-07T07:02:48.551Z,20.26
2022-08-07T07:04:54.736Z,20.92
2022-08-07T07:07:01.113Z,21.17
2022-08-07T07:09:25.401Z,21.16
2022-08-07T07:12:07.945Z,21.41
2022-08-07T07:14:02.716Z,21.58
2022-08-07T07:16:19.593Z,21.53
2022-08-07T07:19:11.247Z,21.86
2022-08-07T07:22:04.328Z,22.21
2022-08-07T07:24:09.133Z,22.09
2022-08-07T07:26:34.882Z,22.27
2022-08-07T07:29:39.748Z,22.62
2022-08-07T07:31:21.848Z,22.81
2022-08-07T07:33:28.796Z,22.80
2022-08-07T07:35:44.118Z,22.92
2022-08-07T07:38:02.646Z,22.91
2022-08-07T07:40:16.488Z,23.04
2022-08-07T07:42:22.259Z,23.27
2022-08-07T07:44:39.811Z,23.37
2022-08-07T07:46:54.694Z,23.32
2022-08-07T07:50:29.800Z,23.08
2022-08-07T07:51:31.417Z,23.66
2022-08-07T07:53:56.230Z,23.76
2022-08-07T07:56:03.267Z,23.88
2022-08-07T07:58:06.987Z,23.27
2022-08-07T08:00:12.373Z,23.94
2022-08-07T08:02:35.707Z,23.95
2022-08-07T08:04:40.395Z,24.04
2022-08-07T08:06:50.922Z,24.26
2022-08-07T08:08:55.402Z,24.40
2022-08-07T08:11:05.839Z,24.52
2022-08-07T08:13:15.249Z,24.61
2022-08-07T08:15:18.230Z,24.76
2022-08-07T08:18:37.004Z,25.11
2022-08-07T08:20:47.989Z,25.49
2022-08-07T08:23:14.364Z,25.75
2022-08-07T08:25:42.478Z,26.07
2022-08-07T08:27:56.406Z,26.27
2022-08-07T08:30:14.296Z,26.81
2022-08-07T08:32:38.470Z,27.28
2022-08-07T08:34:46.080Z,27.73
2022-08-07T08:36:56.134Z,28.01
2022-08-07T08:39:11.243Z,28.66
2022-08-07T08:41:56.775Z,28.86
2022-08-07T08:44:15.613Z,29.30
2022-08-07T08:46:44.954Z,29.68
2022-08-07T08:49:19.202Z,29.74
2022-08-07T08:52:13.968Z,29.60
2022-08-07T08:54:49.715Z,29.07
2022-08-07T08:56:54.821Z,28.79
2022-08-07T08:59:41.973Z,28.56
2022-08-07T09:02:03.980Z,27.99
2022-08-07T09:04:40.856Z,27.80
2022-08-07T09:07:11.366Z,27.51
2022-08-07T09:09:43.381Z,27.20
2022-08-07T09:12:20.295Z,26.96
2022-08-07T09:14:36.863Z,26.44
2022-08-07T09:17:02.553Z,26.95
2022-08-07T09:19:56.637Z,26.85
2022-08-07T09:22:36.945Z,26.94
2022-08-07T09:24:58.969Z,26.91
2022-08-07T09:28:00.016Z,26.93
2022-08-07T09:30:09.414Z,27.00
2022-08-07T09:32:21.040Z,27.01
2022-08-07T09:34:41.927Z,27.00
2022-08-07T09:37:07.596Z,27.01
2022-08-07T09:39:27.444Z,26.93
2022-08-07T09:41:59.085Z,26.64
2022-08-07T09:44:46.517Z,26.73
2022-08-07T09:47:59.972Z,26.90
2022-08-07T09:50:18.680Z,26.96
2022-08-07T09:52:40.564Z,27.05
2022-08-07T09:54:58.593Z,27.16
2022-08-07T09:57:37.106Z,27.28
2022-08-07T10:00:08.378Z,27.34
2022-08-07T10:02:54.938Z,27.52
2022-08-07T10:05:29.449Z,27.61
2022-08-07T10:08:29.701Z,27.61
2022-08-07T10:11:16.753Z,27.76
2022-08-07T10:14:00.391Z,27.69
2022-08-07T10:16:27.447Z,27.93
2022-08-07T10:18:50.080Z,28.00
2022-08-07T10:22:15.010Z,28.09
2022-08-07T10:24:18.698Z,27.84
2022-08-07T10:26:33.075Z,27.94
2022-08-07T10:29:16.846Z,27.95
2022-08-07T10:32:35.729Z,27.76
2022-08-07T10:35:09.082Z,27.73
2022-08-07T10:38:02.447Z,27.59
2022-08-07T10:40:35.654Z,27.64
2022-08-07T10:43:03.128Z,27.62
2022-08-07T10:45:44.944Z,27.48
2022-08-07T10:48:13.584Z,27.45
2022-08-07T10:50:50.182Z,27.59
2022-08-07T10:53:25.024Z,27.75
2022-08-07T10:55:50.406Z,27.74
2022-08-07T10:58:33.327Z,27.26
2022-08-07T11:01:23.827Z,26.63
2022-08-07T11:03:42.946Z,26.57
2022-08-07T11:06:21.981Z,26.42
2022-08-07T11:08:53.207Z,25.98
2022-08-07T11:11:03.756Z,26.09
2022-08-07T11:14:44.638Z,25.97
2022-08-07T11:15:56.041Z,25.85
2022-08-07T11:18:06.372Z,25.77
2022-08-07T11:20:24.701Z,25.55
2022-08-07T11:22:37.122Z,25.25
2022-08-07T11:25:17.613Z,25.38
2022-08-07T11:28:03.283Z,25.33
2022-08-07T11:30:18.940Z,25.31
2022-08-07T11:32:43.892Z,25.35
2022-08-07T11:34:56.001Z,25.38
2022-08-07T11:37:58.364Z,25.94
2022-08-07T11:40:59.612Z,26.35
2022-08-07T11:43:19.321Z,26.50
2022-08-07T11:46:03.334Z,26.75
2022-08-07T11:49:10.282Z,26.83
2022-08-07T11:51:41.442Z,27.29
2022-08-07T11:54:42.136Z,27.43
2022-08-07T11:57:03.897Z,27.78
2022-08-07T12:00:10.778Z,27.94
2022-08-07T12:02:52.735Z,28.08
2022-08-07T12:05:15.241Z,28.08
2022-08-07T12:07:39.853Z,27.65
2022-08-07T12:09:58.824Z,28.03
2022-08-07T12:12:14.312Z,28.20
2022-08-07T12:14:27.788Z,28.52
2022-08-07T12:16:41.757Z,28.69
2022-08-07T12:19:06.760Z,28.76
2022-08-07T12:22:37.767Z,28.53
2022-08-07T12:26:00.328Z,28.50
2022-08-07T12:28:05.753Z,28.61
2022-08-07T12:30:11.810Z,28.54
2022-08-07T12:32:16.061Z,28.73
2022-08-07T12:34:22.808Z,28.57
2022-08-07T12:36:33.397Z,28.60
2022-08-07T12:38:43.400Z,28.23
2022-08-07T12:40:52.440Z,28.22
2022-08-07T12:42:59.630Z,27.97
2022-08-07T12:45:13.840Z,27.89
2022-08-07T12:47:53.772Z,27.62
2022-08-07T12:50:39.592Z,27.36
2022-08-07T12:53:22.194Z,26.82
2022-08-07T12:55:41.378Z,26.80
2022-08-07T12:58:08.194Z,26.41
2022-08-07T13:00:16.400Z,25.98
2022-08-07T13:03:59.351Z,26.26
2022-08-07T13:06:27.765Z,25.86
2022-08-07T13:09:01.561Z,25.90
2022-08-07T13:12:10.046Z,25.71
2022-08-07T13:15:06.662Z,25.42
2022-08-07T13:17:40.644Z,25.61
2022-08-07T13:20:12.771Z,25.31
2022-08-07T13:22:32.971Z,25.45
2022-08-07T13:24:53.889Z,25.28
2022-08-07T13:27:21.207Z,25.38
2022-08-07T13:30:05.960Z,25.54
2022-08-07T13:32:35.173Z,25.68
2022-08-07T13:35:08.899Z,25.54
2022-08-07T13:37:28.736Z,25.31
2022-08-07T13:40:36.459Z,25.98
2022-08-07T13:42:50.042Z,25.53
2022-08-07T13:46:07.219Z,25.20
2022-08-07T13:47:25.204Z,26.30
2022-08-07T13:50:33.175Z,26.44
2022-08-07T13:52:27.076Z,26.45
2022-08-07T13:54:33.594Z,26.51
2022-08-07T13:56:41.249Z,26.63
2022-08-07T13:59:02.099Z,26.56
2022-08-07T14:01:22.051Z,26.79
2022-08-07T14:03:29.549Z,26.40
2022-08-07T14:05:57.083Z,26.87
2022-08-07T14:08:02.846Z,26.94
2022-08-07T14:10:17.474Z,27.00
2022-08-07T14:12:57.413Z,26.86
2022-08-07T14:15:07.928Z,27.19
2022-08-07T14:18:12.312Z,27.12
2022-08-07T14:20:40.393Z,26.92
2022-08-07T14:22:34.136Z,26.79
2022-08-07T14:24:46.015Z,26.66
2022-08-07T14:26:56.504Z,26.66
2022-08-07T14:30:02.794Z,26.41
2022-08-07T14:33:53.867Z,26.18
2022-08-07T14:36:02.048Z,26.05
2022-08-07T14:38:07.620Z,25.78
2022-08-07T14:40:26.524Z,25.33
2022-08-07T14:42:59.899Z,25.44
2022-08-07T14:45:21.471Z,25.09
2022-08-07T14:47:26.568Z,25.32
2022-08-07T14:52:47.949Z,25.19
2022-08-07T14:57:19.147Z,24.63
2022-08-07T15:00:03.253Z,25.15
2022-08-07T15:01:51.134Z,25.27
2022-08-07T15:04:03.914Z,25.37
2022-08-07T15:06:09.573Z,25.48
2022-08-07T15:08:13.994Z,24.87
2022-08-07T15:10:29.933Z,25.47
2022-08-07T15:12:36.518Z,25.43
2022-08-07T15:14:57.650Z,25.56
2022-08-07T15:17:12.002Z,25.50
2022-08-07T15:19:18.989Z,25.69
2022-08-07T15:22:29.494Z,25.70
2022-08-07T15:25:12.747Z,25.72
2022-08-07T15:27:19.806Z,25.69
2022-08-07T15:30:08.530Z,25.74
2022-08-07T15:32:04.979Z,25.72
2022-08-07T15:34:15.048Z,25.67
2022-08-07T15:38:58.877Z,25.14
2022-08-07T15:41:24.017Z,25.65
2022-08-07T15:43:55.817Z,25.65
2022-08-07T15:46:31.804Z,25.63
2022-08-07T15:49:04.017Z,25.66
2022-08-07T15:51:10.084Z,25.71
2022-08-07T15:53:52.271Z,25.66
2022-08-07T15:56:02.791Z,25.40
2022-08-07T15:58:14.497Z,25.79
2022-08-07T16:00:34.049Z,25.32
2022-08-07T16:02:46.663Z,25.58
2022-08-07T16:05:01.431Z,25.89
2022-08-07T16:07:32.040Z,25.84
2022-08-07T16:09:47.137Z,25.93
2022-08-07T16:12:33.572Z,25.88
2022-08-07T16:14:59.147Z,25.85
2022-08-07T16:18:02.993Z,25.80
2022-08-07T16:20:06.608Z,25.79
2022-08-07T16:22:54.969Z,25.60
2022-08-07T16:25:54.513Z,25.72
2022-08-07T16:30:07.033Z,25.49
2022-08-07T16:31:57.397Z,25.64
2022-08-07T16:34:10.005Z,25.52
2022-08-07T16:36:20.933Z,25.53
2022-08-07T16:39:00.664Z,25.36
2022-08-07T16:41:41.730Z,25.65
2022-08-07T16:44:05.912Z,25.68
2022-08-07T16:47:09.567Z,25.59
2022-08-07T16:50:20.465Z,25.45
2022-08-07T16:52:50.343Z,25.36
2022-08-07T16:55:13.154Z,25.40
2022-08-07T16:58:02.345Z,25.33
2022-08-07T17:00:15.049Z,25.29
2022-08-07T17:03:04.730Z,25.27
2022-08-07T17:06:19.004Z,25.04
2022-08-07T17:08:09.260Z,25.18
2022-08-07T17:10:54.338Z,25.17
2022-08-07T17:13:03.553Z,25.16
2022-08-07T17:15:15.764Z,25.00
2022-08-07T17:17:49.056Z,24.79
2022-08-07T17:20:03.418Z,24.11
2022-08-07T17:22:37.501Z,23.73
2022-08-07T17:25:01.163Z,24.38
2022-08-07T17:27:51.186Z,24.15
2022-08-07T17:30:16.121Z,24.18
2022-08-07T17:32:52.881Z,24.10
2022-08-07T17:35:49.903Z,24.10
2022-08-07T17:38:09.585Z,24.08
2022-08-07T17:40:35.802Z,23.79
2022-08-07T17:42:58.623Z,23.96
2022-08-07T17:45:14.912Z,23.61
2022-08-07T17:47:42.118Z,23.87
2022-08-07T17:49:58.550Z,23.61
2022-08-07T17:52:41.381Z,23.58
2022-08-07T17:55:01.718Z,23.62
2022-08-07T17:57:20.453Z,23.72
2022-08-07T17:59:46.588Z,22.94
2022-08-07T18:02:23.456Z,23.57
2022-08-07T18:05:21.795Z,23.56
2022-08-07T18:07:43.725Z,23.31
2022-08-07T18:10:07.477Z,23.33
2022-08-07T18:12:51.976Z,23.35
2022-08-07T18:15:09.669Z,23.27
2022-08-07T18:18:46.657Z,23.26
2022-08-07T18:21:09.469Z,23.17
2022-08-07T18:23:06.365Z,23.09
2022-08-07T18:25:40.254Z,22.90
2022-08-07T18:28:15.259Z,22.57
2022-08-07T18:31:05.417Z,22.81
2022-08-07T18:33:55.093Z,22.78
2022-08-07T18:36:33.412Z,22.59
2022-08-07T18:40:05.542Z,22.60
2022-08-07T18:41:45.990Z,22.54
2022-08-07T18:44:31.206Z,22.45
2022-08-07T18:47:01.682Z,22.36
2022-08-07T18:50:30.414Z,21.49
2022-08-07T18:52:52.864Z,21.56
2022-08-07T18:55:40.998Z,22.11
2022-08-07T18:57:58.507Z,21.96
2022-08-07T19:00:34.061Z,21.93
2022-08-07T19:02:59.736Z,21.69
2022-08-07T19:05:15.764Z,21.89
2022-08-07T19:08:03.760Z,21.73
2022-08-07T19:10:21.443Z,21.60
2022-08-07T19:12:53.710Z,21.56
2022-08-07T19:16:04.981Z,21.38
2022-08-07T19:18:34.620Z,21.31
2022-08-07T19:21:42.749Z,21.24
2022-08-07T19:23:59.022Z,21.08
2022-08-07T19:26:22.998Z,20.99
2022-08-07T19:30:54.412Z,20.81
2022-08-07T19:31:41.455Z,20.41
2022-08-07T19:33:33.582Z,20.63
2022-08-07T19:35:40.381Z,20.52
2022-08-07T19:37:56.350Z,19.86
2022-08-07T19:40:04.551Z,20.59
2022-08-07T19:42:24.451Z,20.64
2022-08-07T19:44:41.201Z,20.07
2022-08-07T19:46:55.601Z,20.29
2022-08-07T19:49:08.439Z,20.46
2022-08-07T19:51:19.137Z,19.80
2022-08-07T19:54:33.256Z,19.66
2022-08-07T19:55:57.496Z,19.82
2022-08-07T19:58:13.366Z,20.40
2022-08-07T20:00:28.386Z,20.47
2022-08-07T20:02:38.969Z,20.37
2022-08-07T20:04:49.375Z,20.32
2022-08-07T20:06:56.530Z,20.36
2022-08-07T20:09:02.961Z,20.28
2022-08-07T20:11:12.072Z,20.38
2022-08-07T20:13:42.055Z,20.28
2022-08-07T20:15:46.068Z,20.43
2022-08-07T20:17:56.269Z,20.20
2022-08-07T20:20:07.516Z,20.45
2022-08-07T20:22:17.721Z,19.95
2022-08-07T20:24:34.902Z,20.19
2022-08-07T20:26:52.139Z,19.82
2022-08-07T20:28:59.740Z,20.19
2022-08-07T20:31:11.236Z,20.19
2022-08-07T20:33:38.347Z,20.16
2022-08-07T20:35:54.657Z,19.87
2022-08-07T20:38:07.396Z,19.73
2022-08-07T20:40:33.124Z,20.08
2022-08-07T20:42:39.730Z,19.91
2022-08-07T20:44:49.574Z,19.96
2022-08-07T20:47:04.297Z,20.11
2022-08-07T20:50:01.030Z,20.10
2022-08-07T20:51:35.932Z,19.80
2022-08-07T20:54:04.171Z,20.00
2022-08-07T20:56:05.632Z,20.03
2022-08-07T20:58:19.709Z,19.68
2022-08-07T21:00:44.498Z,19.78
2022-08-07T21:03:03.131Z,19.71
2022-08-07T21:05:17.181Z,19.93
2022-08-07T21:07:42.388Z,19.26
2022-08-07T21:10:00.204Z,19.31
2022-08-07T21:12:08.285Z,19.78
2022-08-07T21:14:32.797Z,19.78
2022-08-07T21:18:01.094Z,19.74
2022-08-07T21:19:51.892Z,19.69
2022-08-07T21:21:57.736Z,19.49
2022-08-07T21:24:17.758Z,19.55
2022-08-07T21:26:56.735Z,19.51
2022-08-07T21:29:30.585Z,19.42
2022-08-07T21:32:43.005Z,19.40
2022-08-07T21:34:31.778Z,19.27
2022-08-07T21:36:59.462Z,19.05
2022-08-07T21:39:48.574Z,18.86
2022-08-07T21:42:48.155Z,18.67
2022-08-07T21:45:24.268Z,18.41
2022-08-07T21:48:01.417Z,18.15
2022-08-07T21:50:14.454Z,17.94
2022-08-07T21:52:50.263Z,17.96
2022-08-07T21:55:28.362Z,17.73
2022-08-07T21:58:32.418Z,17.69
2022-08-07T22:00:39.955Z,17.75
2022-08-07T22:03:16.547Z,17.69
2022-08-07T22:05:44.386Z,17.55
2022-08-07T22:07:58.439Z,17.44
2022-08-07T22:10:06.374Z,17.45
2022-08-07T22:12:24.565Z,17.64
2022-08-07T22:14:37.830Z,17.55
2022-08-07T22:17:04.221Z,17.51
2022-08-07T22:19:30.149Z,17.34
2022-08-07T22:22:04.805Z,17.33
2022-08-07T22:24:21.484Z,17.44
2022-08-07T22:27:02.681Z,17.32
2022-08-07T22:29:47.540Z,17.28
2022-08-07T22:32:05.973Z,17.33
2022-08-07T22:34:53.423Z,17.24
2022-08-07T22:37:12.402Z,17.36
2022-08-07T22:39:52.840Z,17.34
2022-08-07T22:42:25.604Z,17.24
2022-08-07T22:44:36.058Z,17.17
2022-08-07T22:47:08.858Z,17.12
2022-08-07T22:49:54.521Z,17.10
2022-08-07T22:52:36.561Z,17.10
2022-08-07T22:55:30.988Z,17.02
2022-08-07T22:58:10.609Z,16.94
2022-08-07T23:00:29.194Z,16.70
2022-08-07T23:03:57.975Z,16.83
2022-08-07T23:06:16.584Z,16.91
2022-08-07T23:08:56.000Z,16.89
2022-08-07T23:11:41.380Z,16.88
2022-08-07T23:14:20.823Z,16.79
2022-08-07T23:16:59.397Z,16.72
2022-08-07T23:19:48.298Z,16.35
2022-08-07T23:22:31.238Z,16.57
2022-08-07T23:25:19.104Z,16.54
2022-08-07T23:28:22.924Z,16.35
2022-08-07T23:30:37.236Z,16.46
2022-08-07T23:34:22.144Z,16.51
2022-08-07T23:35:55.860Z,16.44
2022-08-07T23:38:36.209Z,16.44
2022-08-07T23:40:55.999Z,16.39
2022-08-07T23:43:18.402Z,16.40
2022-08-07T23:46:02.873Z,16.34
2022-08-07T23:48:34.206Z,16.28
2022-08-07T23:52:53.489Z,16.24
2022-08-07T23:53:49.461Z,16.21
2022-08-07T23:56:13.231Z,16.15
2022-08-07T23:58:27.106Z,16.02
